Terminal Aerodrome Forecast
Issued by NWS Pocatello, ID

Home | Current Version | Previous Version | Text Only | Print | Product List | Glossary On
Versions: 1 2 3 4 5 6 7 8 9 10 11 12 13 14 15 16
000
FTUS45 KPIH 251405 AAB
TAFIDA
TAF AMD
KIDA 251405Z 2514/2612 21008KT P6SM OVC015
     FM251700 22010KT P6SM BKN025 BKN200
     FM252100 22010KT P6SM VCTS SCT035 OVC100CB
     FM260300 22012KT 5SM -RA BR SCT008 OVC015=

USA.gov is the U.S. government's official web portal to all federal, state and local government web resources and services.